Good Thunder, Minnesota
Current Conditions -  °F | °C
As of 1:15 AM on Friday 31 Oct 2014 (Local Time) from KMKT Reporting Station
Clear Clear  
Wind Chill: 18°   Ceiling: Unl
Heat Index: 30°   Visibility: 10mi
Dew Point: 12°   Wind: 17mph
Humidity: 47%   Direction: 350°N
Pressure: 30.39"   Gusts: NA
Location:  44°N, 94.07°W
Report Text: KMKT 310615Z AUTO 35015KT 10SM CLR M01/M11 A3039 RMK AO1
Loading
Personal Weather Stations






























Interactive Weather Map
Tropical Storm Tracking
New forecast layout! Learn more

10-Day Weather Forecast

Advertisements
Track Severe Weather on mobile